createdAt,value
2022-09-07T00:01:30.673Z,30.30
2022-09-07T00:04:00.759Z,30.73
2022-09-07T00:06:29.356Z,31.57
2022-09-07T00:08:59.702Z,33.53
2022-09-07T00:11:28.056Z,32.00
2022-09-07T00:13:56.951Z,30.07
2022-09-07T00:16:28.082Z,33.03
2022-09-07T00:18:57.323Z,42.33
2022-09-07T00:21:27.490Z,39.70
2022-09-07T00:23:56.530Z,35.73
2022-09-07T00:26:26.862Z,30.70
2022-09-07T00:28:59.035Z,29.70
2022-09-07T00:31:28.298Z,29.90
2022-09-07T00:34:00.045Z,29.03
2022-09-07T00:36:29.756Z,27.40
2022-09-07T00:38:58.590Z,30.87
2022-09-07T00:41:26.945Z,28.00
2022-09-07T00:43:56.916Z,28.10
2022-09-07T00:46:27.884Z,30.60
2022-09-07T00:49:00.958Z,27.90
2022-09-07T00:51:34.744Z,27.40
2022-09-07T00:54:07.462Z,28.17
2022-09-07T00:56:41.163Z,28.77
2022-09-07T00:59:10.784Z,27.80
2022-09-07T01:01:39.606Z,28.00
2022-09-07T01:04:09.352Z,27.40
2022-09-07T01:06:42.491Z,29.57
2022-09-07T01:09:17.930Z,28.17
2022-09-07T01:11:51.130Z,28.80
2022-09-07T01:14:23.732Z,28.40
2022-09-07T01:17:11.595Z,28.33
2022-09-07T01:20:17.349Z,29.20
2022-09-07T01:23:22.077Z,28.83
2022-09-07T01:26:05.771Z,29.37
2022-09-07T01:28:36.739Z,30.30
2022-09-07T01:31:18.391Z,28.30
2022-09-07T01:33:56.511Z,28.97
2022-09-07T01:36:31.365Z,29.30
2022-09-07T01:39:02.636Z,30.07
2022-09-07T01:41:34.025Z,29.27
2022-09-07T01:44:09.140Z,28.93
2022-09-07T01:46:43.810Z,29.47
2022-09-07T01:49:17.958Z,30.47
2022-09-07T01:51:49.396Z,28.07
2022-09-07T01:54:24.122Z,27.60
2022-09-07T01:56:58.135Z,28.20
2022-09-07T01:59:34.407Z,28.07
2022-09-07T02:02:06.906Z,28.20
2022-09-07T02:04:39.587Z,27.97
2022-09-07T02:07:14.032Z,29.30
2022-09-07T02:09:46.464Z,28.97
2022-09-07T02:12:21.102Z,27.30
2022-09-07T02:14:57.766Z,29.30
2022-09-07T02:17:30.970Z,27.70
2022-09-07T02:20:04.873Z,28.60
2022-09-07T02:22:38.842Z,28.13
2022-09-07T02:25:11.367Z,28.33
2022-09-07T02:27:45.327Z,28.27
2022-09-07T02:30:15.922Z,28.83
2022-09-07T02:32:44.753Z,29.97
2022-09-07T02:35:14.333Z,29.23
2022-09-07T02:37:48.265Z,29.40
2022-09-07T02:40:16.571Z,29.13
2022-09-07T02:42:48.884Z,28.97
2022-09-07T02:45:19.417Z,29.73
2022-09-07T02:48:12.337Z,28.10
2022-09-07T02:50:54.201Z,28.10
2022-09-07T02:54:01.341Z,28.90
2022-09-07T02:56:44.063Z,28.13
2022-09-07T02:59:25.148Z,24.70
2022-09-07T03:02:01.739Z,27.33
2022-09-07T03:04:46.725Z,27.13
2022-09-07T03:07:17.619Z,26.50
2022-09-07T03:09:49.607Z,28.90
2022-09-07T03:12:17.986Z,28.90
2022-09-07T03:14:48.198Z,28.60
2022-09-07T03:17:18.280Z,27.50
2022-09-07T03:19:46.571Z,28.37
2022-09-07T03:22:15.013Z,28.53
2022-09-07T03:24:45.392Z,27.47
2022-09-07T03:27:16.922Z,27.13
2022-09-07T03:29:45.411Z,29.37
2022-09-07T03:32:15.480Z,28.80
2022-09-07T03:34:48.813Z,27.30
2022-09-07T03:37:19.924Z,28.50
2022-09-07T03:39:50.014Z,29.43
2022-09-07T03:42:28.957Z,29.00
2022-09-07T03:45:11.498Z,26.00
2022-09-07T03:47:41.442Z,28.63
2022-09-07T03:50:12.993Z,29.10
2022-09-07T03:55:31.590Z,29.37
2022-09-07T03:58:01.887Z,29.00
2022-09-07T04:00:30.210Z,29.87
2022-09-07T04:03:02.634Z,28.97
2022-09-07T04:05:39.459Z,24.67
2022-09-07T04:08:07.930Z,28.77
2022-09-07T04:10:39.241Z,27.77
2022-09-07T04:13:09.517Z,29.53
2022-09-07T04:15:37.954Z,28.33
2022-09-07T04:18:06.476Z,31.77
2022-09-07T04:20:41.864Z,31.47
2022-09-07T04:23:10.129Z,30.00
2022-09-07T04:25:38.422Z,29.67
2022-09-07T04:28:06.813Z,31.20
2022-09-07T04:30:36.511Z,28.20
2022-09-07T04:33:05.006Z,28.67
2022-09-07T04:35:49.291Z,30.50
2022-09-07T04:38:18.020Z,28.40
2022-09-07T04:40:46.681Z,28.80
2022-09-07T04:43:15.122Z,29.00
2022-09-07T04:45:45.683Z,28.90
2022-09-07T04:48:15.634Z,29.70
2022-09-07T04:50:45.439Z,30.13
2022-09-07T04:53:16.714Z,30.23
2022-09-07T04:55:48.750Z,30.23
2022-09-07T04:58:17.218Z,29.90
2022-09-07T05:00:45.819Z,27.00
2022-09-07T05:03:14.084Z,31.40
2022-09-07T05:05:42.302Z,29.40
2022-09-07T05:08:12.117Z,30.63
2022-09-07T05:10:40.433Z,29.83
2022-09-07T05:13:11.059Z,30.30
2022-09-07T05:15:42.937Z,29.93
2022-09-07T05:18:14.837Z,30.57
2022-09-07T05:20:43.179Z,30.80
2022-09-07T05:23:12.764Z,29.03
2022-09-07T05:25:45.083Z,29.47
2022-09-07T05:28:18.592Z,28.87
2022-09-07T05:36:28.762Z,30.03
2022-09-07T05:38:59.719Z,30.27
2022-09-07T05:41:28.422Z,31.10
2022-09-07T05:47:04.358Z,29.67
2022-09-07T05:49:38.131Z,29.77
2022-09-07T05:52:08.981Z,30.60
2022-09-07T05:55:28.218Z,31.97
2022-09-07T05:57:55.336Z,31.87
2022-09-07T06:00:23.850Z,29.90
2022-09-07T06:03:16.044Z,30.73
2022-09-07T06:08:26.664Z,30.90
2022-09-07T06:10:57.345Z,30.97
2022-09-07T06:13:31.652Z,29.40
2022-09-07T06:16:27.252Z,33.20
2022-09-07T06:18:58.210Z,30.03
2022-09-07T06:21:30.918Z,31.90
2022-09-07T06:23:59.517Z,32.20
2022-09-07T06:26:29.630Z,31.03
2022-09-07T06:28:58.193Z,32.33
2022-09-07T06:31:29.385Z,34.03
2022-09-07T06:33:59.023Z,30.73
2022-09-07T06:36:31.803Z,31.50
2022-09-07T06:39:02.894Z,31.87
2022-09-07T06:44:31.397Z,31.23
2022-09-07T06:49:29.765Z,32.03
2022-09-07T06:51:58.243Z,32.57
2022-09-07T06:57:16.227Z,31.77
2022-09-07T06:59:44.692Z,30.97
2022-09-07T07:02:15.484Z,31.90
2022-09-07T07:04:44.001Z,31.47
2022-09-07T07:07:29.601Z,31.67
2022-09-07T07:09:57.961Z,30.80
2022-09-07T07:15:06.483Z,31.27
2022-09-07T07:17:34.684Z,31.20
2022-09-07T07:20:05.297Z,30.13
2022-09-07T07:22:49.170Z,31.23
2022-09-07T07:25:17.626Z,34.87
2022-09-07T07:27:47.269Z,29.97
2022-09-07T07:30:16.379Z,31.90
2022-09-07T07:32:45.439Z,30.10
2022-09-07T07:35:16.534Z,29.13
2022-09-07T07:37:48.150Z,29.60
2022-09-07T07:40:20.394Z,30.20
2022-09-07T07:42:53.297Z,30.60
2022-09-07T07:48:13.941Z,28.93
2022-09-07T07:51:06.465Z,30.07
2022-09-07T07:53:41.830Z,29.93
2022-09-07T07:56:12.157Z,28.97
2022-09-07T07:58:45.626Z,28.17
2022-09-07T08:01:15.663Z,29.53
2022-09-07T08:03:46.900Z,29.57
2022-09-07T08:06:17.869Z,29.07
2022-09-07T08:08:46.687Z,29.17
2022-09-07T08:11:17.462Z,29.23
2022-09-07T08:13:49.679Z,27.73
2022-09-07T08:16:21.360Z,27.40
2022-09-07T08:18:49.901Z,30.10
2022-09-07T08:21:18.652Z,28.67
2022-09-07T08:23:48.995Z,28.07
2022-09-07T08:26:19.251Z,28.30
2022-09-07T08:28:51.165Z,27.57
2022-09-07T08:31:19.564Z,28.67
2022-09-07T08:33:50.310Z,28.17
2022-09-07T08:36:21.900Z,27.60
2022-09-07T08:38:52.264Z,27.80
2022-09-07T08:41:53.496Z,26.80
2022-09-07T08:44:26.865Z,28.00
2022-09-07T08:47:03.556Z,27.77
2022-09-07T08:49:43.661Z,27.30
2022-09-07T08:52:15.410Z,27.70
2022-09-07T08:54:56.466Z,28.70
2022-09-07T08:57:30.876Z,28.20
2022-09-07T09:00:08.688Z,27.80
2022-09-07T09:02:46.000Z,27.00
2022-09-07T09:05:29.314Z,28.70
2022-09-07T09:08:11.714Z,27.93
2022-09-07T09:10:47.999Z,27.87
2022-09-07T09:13:20.436Z,28.10
2022-09-07T09:15:59.697Z,27.70
2022-09-07T09:18:48.369Z,28.37
2022-09-07T09:21:18.804Z,26.27
2022-09-07T09:23:55.831Z,27.83
2022-09-07T09:26:28.983Z,28.03
2022-09-07T09:29:12.818Z,26.80
2022-09-07T09:31:42.915Z,27.83
2022-09-07T09:34:20.379Z,27.60
2022-09-07T09:36:55.254Z,26.93
2022-09-07T09:39:36.882Z,26.40
2022-09-07T09:42:27.877Z,26.30
2022-09-07T09:45:04.781Z,26.40
2022-09-07T09:47:37.547Z,25.97
2022-09-07T09:50:11.136Z,27.23
2022-09-07T09:52:49.360Z,27.03
2022-09-07T09:55:35.331Z,26.27
2022-09-07T10:01:28.092Z,26.87
2022-09-07T10:04:01.533Z,26.50
2022-09-07T10:06:34.458Z,26.53
2022-09-07T10:09:03.602Z,27.10
2022-09-07T10:14:34.406Z,27.13
2022-09-07T10:17:11.551Z,26.43
2022-09-07T10:19:44.985Z,26.40
2022-09-07T10:22:32.415Z,26.03
2022-09-07T10:25:01.955Z,27.43
2022-09-07T10:27:36.793Z,26.70
2022-09-07T10:30:13.553Z,25.60
2022-09-07T10:32:54.423Z,27.27
2022-09-07T10:35:52.426Z,25.73
2022-09-07T10:38:33.999Z,25.83
2022-09-07T10:41:08.511Z,27.07
2022-09-07T10:43:44.652Z,25.13
2022-09-07T10:49:30.673Z,26.73
2022-09-07T10:52:15.753Z,27.27
2022-09-07T10:54:52.655Z,25.90
2022-09-07T10:57:32.997Z,25.67
2022-09-07T11:00:11.675Z,26.17
2022-09-07T11:06:17.898Z,26.50
2022-09-07T11:09:26.392Z,25.93
2022-09-07T11:15:05.094Z,26.43
2022-09-07T11:17:43.163Z,26.70
2022-09-07T11:20:24.769Z,26.83
2022-09-07T11:23:16.555Z,26.60
2022-09-07T11:26:03.365Z,27.40
2022-09-07T11:28:47.989Z,28.50
2022-09-07T11:31:28.742Z,26.77
2022-09-07T11:37:23.398Z,26.20
2022-09-07T11:40:05.462Z,26.43
2022-09-07T11:42:48.313Z,27.17
2022-09-07T11:45:23.495Z,26.13
2022-09-07T11:48:04.244Z,27.63
2022-09-07T11:50:38.479Z,26.93
2022-09-07T11:53:22.723Z,27.60
2022-09-07T11:56:01.399Z,27.43
2022-09-07T11:59:09.264Z,28.00
2022-09-07T12:02:58.219Z,25.63
2022-09-07T12:06:15.092Z,26.77
2022-09-07T12:09:11.987Z,26.83
2022-09-07T12:15:21.026Z,25.97
2022-09-07T12:18:22.734Z,26.07
2022-09-07T12:24:06.076Z,25.73
2022-09-07T12:27:05.407Z,27.00
2022-09-07T12:29:37.275Z,27.00
2022-09-07T12:35:38.996Z,27.43
2022-09-07T12:39:08.905Z,26.20
2022-09-07T12:44:48.523Z,26.17
2022-09-07T12:47:37.380Z,26.20
2022-09-07T12:50:31.515Z,27.03
2022-09-07T12:53:32.209Z,25.50
2022-09-07T13:00:03.293Z,26.63
2022-09-07T13:07:01.654Z,27.43
2022-09-07T13:09:44.658Z,27.03
2022-09-07T13:15:46.010Z,26.77
2022-09-07T13:18:52.872Z,27.53
2022-09-07T13:21:59.524Z,27.20
2022-09-07T13:24:55.587Z,27.37
2022-09-07T13:28:02.976Z,28.53
2022-09-07T13:30:55.334Z,27.97
2022-09-07T13:33:56.425Z,29.20
2022-09-07T13:36:47.172Z,29.80
2022-09-07T13:39:23.480Z,27.97
2022-09-07T13:42:02.763Z,30.73
2022-09-07T13:44:51.025Z,28.37
2022-09-07T13:47:32.199Z,27.47
2022-09-07T13:50:31.689Z,28.13
2022-09-07T13:53:46.212Z,27.87
2022-09-07T13:56:43.550Z,27.90
2022-09-07T13:59:30.856Z,26.77
2022-09-07T14:02:36.814Z,26.23
2022-09-07T14:05:26.212Z,26.03
2022-09-07T14:07:57.449Z,27.97
2022-09-07T14:10:49.035Z,26.10
2022-09-07T14:13:17.058Z,25.97
2022-09-07T14:15:49.681Z,26.10
2022-09-07T14:18:26.685Z,26.77
2022-09-07T14:20:59.140Z,26.50
2022-09-07T14:23:35.623Z,26.03
2022-09-07T14:26:18.815Z,31.57
2022-09-07T14:28:48.842Z,25.87
2022-09-07T14:31:21.502Z,27.27
2022-09-07T14:33:52.843Z,26.57
2022-09-07T14:36:44.209Z,28.60
2022-09-07T14:39:26.389Z,26.57
2022-09-07T14:41:57.833Z,27.77
2022-09-07T14:44:43.629Z,27.13
2022-09-07T14:47:29.788Z,26.37
2022-09-07T14:50:18.357Z,26.63
2022-09-07T14:55:48.522Z,26.67
2022-09-07T14:58:25.127Z,25.60
2022-09-07T15:03:59.865Z,25.90
2022-09-07T15:07:02.176Z,26.80
2022-09-07T15:09:38.065Z,26.00
2022-09-07T15:12:36.050Z,26.03
2022-09-07T15:15:22.084Z,25.43
2022-09-07T15:17:50.406Z,26.07
2022-09-07T15:20:40.472Z,26.33
2022-09-07T15:23:27.747Z,25.70
2022-09-07T15:25:57.960Z,25.60
2022-09-07T15:31:42.786Z,26.40
2022-09-07T15:34:24.520Z,23.20
2022-09-07T15:37:00.576Z,26.63
2022-09-07T15:39:31.381Z,24.90
2022-09-07T15:42:59.553Z,26.70
2022-09-07T15:44:51.779Z,25.40
2022-09-07T15:50:11.523Z,25.57
2022-09-07T15:52:42.751Z,24.50
2022-09-07T15:55:18.823Z,24.80
2022-09-07T15:57:59.242Z,25.20
2022-09-07T16:04:38.807Z,24.30
2022-09-07T16:10:31.799Z,22.60
2022-09-07T16:13:16.238Z,22.60
2022-09-07T16:19:41.044Z,21.43
2022-09-07T16:25:23.737Z,22.90
2022-09-07T16:28:11.963Z,23.07
2022-09-07T16:30:41.634Z,22.97
2022-09-07T16:33:37.034Z,22.80
2022-09-07T16:36:16.007Z,23.10
2022-09-07T16:38:48.385Z,24.30
2022-09-07T16:41:18.231Z,24.10
2022-09-07T16:43:47.980Z,24.00
2022-09-07T16:46:21.458Z,23.93
2022-09-07T16:49:04.306Z,24.07
2022-09-07T16:51:34.165Z,24.20
2022-09-07T16:54:03.001Z,25.03
2022-09-07T16:56:38.291Z,24.40
2022-09-07T16:59:18.452Z,24.47
2022-09-07T17:01:50.263Z,26.10
2022-09-07T17:04:20.273Z,24.53
2022-09-07T17:06:54.555Z,25.67
2022-09-07T17:09:28.673Z,26.13
2022-09-07T17:12:01.020Z,25.70
2022-09-07T17:14:30.630Z,25.60
2022-09-07T17:16:59.096Z,27.27
2022-09-07T17:19:30.530Z,26.60
2022-09-07T17:24:44.694Z,28.53
2022-09-07T17:27:16.236Z,28.30
2022-09-07T17:30:09.066Z,29.43
2022-09-07T17:32:59.229Z,29.00
2022-09-07T17:35:39.297Z,27.83
2022-09-07T17:41:54.733Z,29.20
2022-09-07T17:44:41.531Z,29.70
2022-09-07T17:47:53.392Z,30.00
2022-09-07T17:50:40.051Z,30.60
2022-09-07T17:56:15.055Z,28.60
2022-09-07T18:01:47.606Z,30.30
2022-09-07T18:04:17.286Z,30.13
2022-09-07T18:06:55.563Z,30.23
2022-09-07T18:09:31.790Z,34.80
2022-09-07T18:12:21.105Z,37.40
2022-09-07T18:15:05.990Z,36.87
2022-09-07T18:17:42.545Z,33.30
2022-09-07T18:20:19.384Z,33.17
2022-09-07T18:22:48.010Z,30.67
2022-09-07T18:25:27.963Z,32.90
2022-09-07T18:30:52.097Z,31.43
2022-09-07T18:33:25.108Z,33.43
2022-09-07T18:36:05.251Z,33.20
2022-09-07T18:38:52.845Z,32.63
2022-09-07T18:41:29.634Z,32.10
2022-09-07T18:47:06.572Z,31.37
2022-09-07T18:49:50.239Z,30.60
2022-09-07T18:52:52.123Z,30.10
2022-09-07T18:55:27.544Z,30.07
2022-09-07T18:57:59.621Z,31.80
2022-09-07T19:00:31.595Z,30.47
2022-09-07T19:03:02.486Z,33.87
2022-09-07T19:05:50.311Z,29.10
2022-09-07T19:08:28.067Z,31.37
2022-09-07T19:10:56.873Z,29.90
2022-09-07T19:13:30.017Z,30.83
2022-09-07T19:16:04.675Z,32.93
2022-09-07T19:18:36.412Z,31.07
2022-09-07T19:21:08.172Z,31.87
2022-09-07T19:23:41.677Z,31.77
2022-09-07T19:26:26.290Z,30.70
2022-09-07T19:28:57.212Z,32.23
2022-09-07T19:31:26.102Z,32.00
2022-09-07T19:33:55.989Z,33.60
2022-09-07T19:36:24.501Z,34.00
2022-09-07T19:39:04.351Z,41.83
2022-09-07T19:41:45.065Z,40.83
2022-09-07T19:44:15.544Z,35.60
2022-09-07T19:46:46.183Z,32.20
2022-09-07T19:49:14.552Z,31.53
2022-09-07T19:51:43.930Z,33.57
2022-09-07T19:54:16.250Z,32.87
2022-09-07T19:56:45.738Z,35.63
2022-09-07T19:59:14.412Z,34.63
2022-09-07T20:01:46.081Z,35.43
2022-09-07T20:04:20.325Z,35.83
2022-09-07T20:06:50.514Z,34.73
2022-09-07T20:09:20.963Z,34.70
2022-09-07T20:11:50.356Z,34.90
2022-09-07T20:14:19.913Z,33.20
2022-09-07T20:16:48.304Z,34.27
2022-09-07T20:19:17.357Z,36.03
2022-09-07T20:21:45.575Z,33.73
2022-09-07T20:24:14.537Z,34.90
2022-09-07T20:26:44.061Z,36.20
2022-09-07T20:29:28.834Z,34.67
2022-09-07T20:31:57.929Z,38.83
2022-09-07T20:34:26.802Z,36.83
2022-09-07T20:36:55.424Z,34.40
2022-09-07T20:39:27.989Z,35.47
2022-09-07T20:41:57.790Z,36.57
2022-09-07T20:44:40.331Z,34.30
2022-09-07T20:47:11.444Z,35.37
2022-09-07T20:49:53.871Z,35.70
2022-09-07T20:52:30.334Z,36.47
2022-09-07T20:55:13.536Z,34.87
2022-09-07T20:57:45.738Z,35.80
2022-09-07T21:00:15.791Z,37.30
2022-09-07T21:02:44.292Z,37.37
2022-09-07T21:05:12.588Z,37.37
2022-09-07T21:07:41.798Z,37.13
2022-09-07T21:10:10.935Z,36.50
2022-09-07T21:12:39.796Z,36.53
2022-09-07T21:15:13.102Z,35.87
2022-09-07T21:17:41.544Z,36.30
2022-09-07T21:20:10.627Z,36.93
2022-09-07T21:22:38.913Z,35.80
2022-09-07T21:25:08.078Z,36.40
2022-09-07T21:27:38.697Z,35.50
2022-09-07T21:30:08.506Z,36.30
2022-09-07T21:32:50.985Z,38.53
2022-09-07T21:35:25.991Z,37.00
2022-09-07T21:38:30.674Z,38.27
2022-09-07T21:40:59.004Z,38.87
2022-09-07T21:43:27.224Z,41.20
2022-09-07T21:45:55.389Z,37.97
2022-09-07T21:48:25.035Z,37.30
2022-09-07T21:50:57.862Z,36.97
2022-09-07T21:53:26.217Z,39.90
2022-09-07T21:55:57.343Z,37.20
2022-09-07T21:58:31.630Z,37.47
2022-09-07T22:01:04.013Z,36.50
2022-09-07T22:03:36.618Z,36.50
2022-09-07T22:06:05.323Z,37.30
2022-09-07T22:08:35.016Z,38.33
2022-09-07T22:11:08.173Z,37.00
2022-09-07T22:13:36.811Z,36.73
2022-09-07T22:16:05.709Z,38.53
2022-09-07T22:18:37.457Z,37.47
2022-09-07T22:21:08.168Z,37.60
2022-09-07T22:23:38.744Z,38.40
2022-09-07T22:26:08.087Z,38.23
2022-09-07T22:28:37.111Z,39.60
2022-09-07T22:31:14.438Z,38.70
2022-09-07T22:33:44.901Z,37.80
2022-09-07T22:36:15.866Z,38.23
2022-09-07T22:38:45.446Z,40.20
2022-09-07T22:41:16.706Z,40.10
2022-09-07T22:43:45.784Z,39.13
2022-09-07T22:46:14.903Z,39.80
2022-09-07T22:48:47.475Z,38.17
2022-09-07T22:51:18.619Z,38.03
2022-09-07T22:53:46.826Z,39.50
2022-09-07T22:56:16.821Z,38.40
2022-09-07T22:58:50.337Z,39.40
2022-09-07T23:01:23.350Z,40.20
2022-09-07T23:03:59.504Z,40.60
2022-09-07T23:06:30.037Z,39.87
2022-09-07T23:09:00.232Z,42.47
2022-09-07T23:11:29.068Z,39.40
2022-09-07T23:14:00.233Z,41.97
2022-09-07T23:16:33.488Z,40.77
2022-09-07T23:19:09.932Z,42.17
2022-09-07T23:21:38.103Z,40.80
2022-09-07T23:24:14.455Z,41.27
2022-09-07T23:26:43.716Z,35.40
2022-09-07T23:29:14.047Z,40.20
2022-09-07T23:31:45.453Z,40.23
2022-09-07T23:34:18.133Z,41.50
2022-09-07T23:36:50.191Z,41.17
2022-09-07T23:39:25.824Z,40.73
2022-09-07T23:41:56.813Z,40.43
2022-09-07T23:44:28.755Z,40.50
2022-09-07T23:46:57.039Z,40.33
2022-09-07T23:49:26.626Z,39.90
2022-09-07T23:51:57.297Z,42.50
2022-09-07T23:54:30.821Z,41.70
2022-09-07T23:57:04.193Z,42.20
2022-09-07T23:59:39.233Z,39.13
